createdAt,value
2018-07-07T00:01:27.144Z,45.80
2018-07-07T00:03:56.030Z,45.70
2018-07-07T00:06:24.953Z,45.70
2018-07-07T00:08:54.074Z,45.70
2018-07-07T00:11:23.022Z,45.70
2018-07-07T00:13:51.961Z,45.60
2018-07-07T00:16:20.862Z,45.50
2018-07-07T00:18:49.797Z,45.60
2018-07-07T00:21:18.756Z,45.50
2018-07-07T00:23:48.322Z,45.50
2018-07-07T00:26:17.248Z,45.40
2018-07-07T00:28:46.289Z,45.10
2018-07-07T00:31:15.277Z,44.90
2018-07-07T00:33:44.328Z,44.70
2018-07-07T00:36:13.564Z,44.60
2018-07-07T00:38:42.456Z,44.70
2018-07-07T00:41:11.489Z,44.70
2018-07-07T00:43:40.442Z,44.80
2018-07-07T00:46:09.362Z,44.90
2018-07-07T00:48:38.722Z,44.90
2018-07-07T00:51:08.606Z,45.80
2018-07-07T00:53:37.650Z,45.20
2018-07-07T00:56:06.642Z,45.40
2018-07-07T00:58:35.564Z,45.50
2018-07-07T01:01:04.852Z,45.80
2018-07-07T01:03:33.759Z,46.00
2018-07-07T01:06:02.705Z,46.10
2018-07-07T01:08:31.604Z,46.20
2018-07-07T01:11:00.497Z,46.30
2018-07-07T01:13:29.423Z,46.30
2018-07-07T01:15:58.314Z,46.40
2018-07-07T01:18:27.244Z,46.50
2018-07-07T01:20:56.535Z,46.60
2018-07-07T01:23:25.422Z,46.60
2018-07-07T01:25:54.335Z,46.80
2018-07-07T01:28:23.243Z,47.00
2018-07-07T01:30:52.163Z,47.20
2018-07-07T01:33:21.101Z,47.40
2018-07-07T01:35:50.347Z,47.60
2018-07-07T01:40:48.249Z,48.00
2018-07-07T01:43:17.233Z,48.30
2018-07-07T01:45:46.153Z,48.50
2018-07-07T01:48:15.048Z,48.80
2018-07-07T01:50:43.965Z,49.00
2018-07-07T01:53:12.813Z,49.20
2018-07-07T01:55:41.697Z,49.60
2018-07-07T01:58:10.956Z,49.90
2018-07-07T02:00:40.182Z,50.30
2018-07-07T02:03:09.127Z,50.60
2018-07-07T02:05:38.724Z,51.00
2018-07-07T02:08:07.974Z,51.50
2018-07-07T02:10:36.858Z,51.90
2018-07-07T02:13:05.616Z,52.30
2018-07-07T02:15:34.516Z,52.60
2018-07-07T02:18:03.466Z,52.90
2018-07-07T02:20:32.402Z,53.10
2018-07-07T02:23:01.652Z,53.50
2018-07-07T02:25:30.012Z,53.70
2018-07-07T02:27:58.999Z,54.00
2018-07-07T02:30:27.705Z,54.20
2018-07-07T02:32:56.743Z,54.40
2018-07-07T02:35:25.120Z,54.70
2018-07-07T02:37:54.020Z,55.00
2018-07-07T02:40:22.816Z,55.30
2018-07-07T02:42:51.144Z,55.60
2018-07-07T02:45:19.488Z,55.90
2018-07-07T02:47:47.859Z,56.10
2018-07-07T02:50:16.547Z,56.30
2018-07-07T02:52:44.937Z,56.70
2018-07-07T02:55:13.271Z,57.50
2018-07-07T02:57:42.103Z,57.10
2018-07-07T03:00:10.514Z,57.50
2018-07-07T03:02:38.937Z,57.70
2018-07-07T03:05:07.654Z,58.00
2018-07-07T03:07:36.044Z,58.10
2018-07-07T03:10:04.929Z,58.40
2018-07-07T03:12:33.257Z,58.60
2018-07-07T03:15:01.992Z,59.00
2018-07-07T03:17:30.689Z,59.30
2018-07-07T03:19:59.051Z,59.70
2018-07-07T03:22:27.414Z,59.90
2018-07-07T03:24:55.779Z,60.40
2018-07-07T03:27:24.158Z,60.60
2018-07-07T03:29:52.512Z,61.10
2018-07-07T03:34:48.952Z,61.80
2018-07-07T03:37:17.354Z,62.30
2018-07-07T03:39:45.712Z,62.70
2018-07-07T03:42:14.140Z,63.00
2018-07-07T03:44:42.728Z,63.20
2018-07-07T03:47:11.082Z,63.50
2018-07-07T03:49:39.416Z,64.00
2018-07-07T03:52:07.806Z,64.20
2018-07-07T03:54:36.290Z,65.10
2018-07-07T03:57:05.867Z,64.30
2018-07-07T03:59:34.933Z,64.30
2018-07-07T04:02:05.621Z,64.40
2018-07-07T04:04:33.943Z,64.40
2018-07-07T04:07:02.293Z,64.40
2018-07-07T04:09:31.129Z,64.50
2018-07-07T04:11:59.615Z,64.50
2018-07-07T04:14:27.997Z,64.70
2018-07-07T04:16:56.563Z,64.80
2018-07-07T04:19:24.953Z,64.70
2018-07-07T04:21:53.335Z,65.30
2018-07-07T04:24:22.023Z,66.00
2018-07-07T04:26:50.509Z,66.30
2018-07-07T04:29:19.128Z,66.50
2018-07-07T04:31:47.648Z,66.70
2018-07-07T04:34:16.325Z,66.80
2018-07-07T04:36:44.714Z,67.00
2018-07-07T04:39:13.045Z,67.20
2018-07-07T04:41:41.469Z,67.30
2018-07-07T04:44:10.555Z,67.30
2018-07-07T04:46:39.189Z,67.40
2018-07-07T04:49:07.518Z,68.00
2018-07-07T04:51:35.873Z,68.20
2018-07-07T04:54:04.259Z,68.40
2018-07-07T04:56:32.617Z,69.00
2018-07-07T04:59:00.968Z,69.30
2018-07-07T05:01:29.330Z,69.40
2018-07-07T05:03:58.041Z,69.40
2018-07-07T05:06:26.797Z,69.70
2018-07-07T05:08:55.164Z,70.10
2018-07-07T05:11:23.523Z,70.10
2018-07-07T05:13:52.489Z,70.00
2018-07-07T05:16:20.920Z,70.00
2018-07-07T05:18:49.287Z,70.40
2018-07-07T05:21:18.022Z,70.40
2018-07-07T05:23:46.365Z,70.70
2018-07-07T05:26:15.276Z,71.50
2018-07-07T05:28:44.178Z,71.50
2018-07-07T05:31:13.061Z,71.60
2018-07-07T05:33:42.212Z,71.40
2018-07-07T05:36:11.137Z,71.40
2018-07-07T05:38:40.374Z,71.50
2018-07-07T05:41:09.389Z,71.50
2018-07-07T05:43:38.408Z,71.60
2018-07-07T05:46:07.734Z,71.70
2018-07-07T05:48:36.666Z,71.60
2018-07-07T05:51:05.942Z,71.70
2018-07-07T05:53:34.873Z,71.60
2018-07-07T05:56:03.772Z,71.50
2018-07-07T05:58:32.696Z,71.50
2018-07-07T06:01:01.879Z,71.60
2018-07-07T06:03:30.803Z,71.50
2018-07-07T06:05:59.706Z,71.50
2018-07-07T06:08:28.605Z,71.10
2018-07-07T06:10:57.548Z,71.20
2018-07-07T06:13:26.503Z,71.30
2018-07-07T06:15:55.426Z,71.00
2018-07-07T06:18:24.935Z,71.20
2018-07-07T06:20:54.004Z,71.30
2018-07-07T06:23:23.633Z,71.10
2018-07-07T06:25:52.593Z,71.10
2018-07-07T06:28:21.852Z,71.00
2018-07-07T06:30:50.767Z,70.90
2018-07-07T06:33:19.685Z,70.70
2018-07-07T06:35:48.735Z,70.70
2018-07-07T06:38:17.765Z,70.60
2018-07-07T06:40:46.915Z,70.50
2018-07-07T06:43:15.883Z,70.50
2018-07-07T06:45:44.788Z,70.30
2018-07-07T06:48:13.723Z,70.00
2018-07-07T06:50:42.616Z,70.10
2018-07-07T06:53:12.026Z,69.80
2018-07-07T06:55:41.101Z,69.50
2018-07-07T06:58:10.052Z,69.30
2018-07-07T07:00:39.048Z,69.10
2018-07-07T07:03:08.038Z,69.00
2018-07-07T07:05:37.125Z,68.70
2018-07-07T07:08:06.046Z,68.30
2018-07-07T07:10:35.399Z,68.10
2018-07-07T07:13:04.337Z,67.80
2018-07-07T07:15:33.375Z,67.50
2018-07-07T07:18:02.314Z,67.30
2018-07-07T07:20:31.260Z,67.10
2018-07-07T07:23:00.556Z,66.60
2018-07-07T07:25:29.590Z,66.30
2018-07-07T07:27:58.594Z,66.00
2018-07-07T07:32:56.240Z,65.10
2018-07-07T07:35:25.730Z,64.80
2018-07-07T07:37:55.050Z,64.30
2018-07-07T07:40:23.958Z,63.40
2018-07-07T07:42:52.897Z,63.00
2018-07-07T07:45:22.250Z,62.70
2018-07-07T07:47:51.196Z,62.30
2018-07-07T07:50:20.502Z,61.00
2018-07-07T07:52:49.497Z,60.50
2018-07-07T07:55:18.562Z,60.30
2018-07-07T07:57:47.876Z,59.80
2018-07-07T08:00:17.210Z,59.40
2018-07-07T08:02:46.118Z,59.30
2018-07-07T08:05:15.134Z,58.80
2018-07-07T08:07:44.098Z,59.10
2018-07-07T08:10:13.376Z,58.40
2018-07-07T08:12:42.290Z,58.10
2018-07-07T08:17:39.820Z,58.10
2018-07-07T08:20:08.776Z,57.20
2018-07-07T08:22:37.836Z,56.90
2018-07-07T08:25:07.268Z,56.30
2018-07-07T08:27:36.189Z,55.90
2018-07-07T08:30:05.311Z,55.50
2018-07-07T08:32:34.364Z,55.00
2018-07-07T08:35:03.313Z,54.80
2018-07-07T08:37:32.626Z,54.70
2018-07-07T08:40:01.613Z,54.50
2018-07-07T08:42:30.947Z,54.40
2018-07-07T08:44:59.883Z,54.50
2018-07-07T08:47:29.194Z,54.30
2018-07-07T08:49:58.282Z,53.80
2018-07-07T08:52:27.305Z,53.60
2018-07-07T08:54:56.263Z,53.40
2018-07-07T08:57:25.179Z,53.40
2018-07-07T08:59:54.069Z,53.30
2018-07-07T09:02:23.063Z,53.10
2018-07-07T09:04:52.004Z,52.90
2018-07-07T09:07:20.968Z,53.20
2018-07-07T09:09:50.017Z,52.60
2018-07-07T09:12:18.991Z,52.40
2018-07-07T09:14:48.002Z,52.30
2018-07-07T09:17:16.997Z,52.10
2018-07-07T09:19:45.947Z,51.80
2018-07-07T09:22:14.885Z,51.40
2018-07-07T09:24:43.815Z,51.30
2018-07-07T09:27:12.757Z,51.10
2018-07-07T09:29:41.769Z,50.60
2018-07-07T09:32:10.692Z,50.60
2018-07-07T09:34:39.716Z,50.50
2018-07-07T09:37:08.650Z,50.50
2018-07-07T09:39:38.010Z,50.30
2018-07-07T09:42:06.950Z,50.20
2018-07-07T09:44:35.865Z,50.40
2018-07-07T09:47:04.846Z,49.60
2018-07-07T09:49:33.802Z,49.50
2018-07-07T09:52:02.794Z,49.30
2018-07-07T09:54:31.808Z,49.20
2018-07-07T09:57:00.782Z,49.00
2018-07-07T09:59:29.820Z,49.00
2018-07-07T10:04:27.702Z,48.90
2018-07-07T10:06:56.756Z,48.60
2018-07-07T10:09:25.852Z,48.60
2018-07-07T10:11:54.796Z,48.60
2018-07-07T10:14:23.734Z,48.50
2018-07-07T10:16:52.621Z,48.20
2018-07-07T10:19:21.859Z,47.60
2018-07-07T10:21:50.812Z,47.80
2018-07-07T10:24:19.803Z,47.90
2018-07-07T10:26:49.087Z,47.80
2018-07-07T10:29:17.996Z,47.80
2018-07-07T10:31:46.920Z,47.80
2018-07-07T10:34:15.902Z,47.70
2018-07-07T10:36:45.037Z,47.80
2018-07-07T10:39:13.965Z,47.80
2018-07-07T10:41:42.894Z,47.80
2018-07-07T10:44:12.135Z,47.80
2018-07-07T10:46:41.124Z,47.70
2018-07-07T10:49:10.115Z,47.70
2018-07-07T10:51:39.055Z,47.80
2018-07-07T10:54:07.963Z,47.70
2018-07-07T10:56:36.877Z,47.50
2018-07-07T10:59:05.912Z,46.90
2018-07-07T11:01:34.809Z,46.30
2018-07-07T11:04:04.257Z,45.80
2018-07-07T11:06:33.588Z,45.60
2018-07-07T11:09:02.507Z,45.00
2018-07-07T11:11:31.771Z,44.80
2018-07-07T11:14:00.809Z,45.10
2018-07-07T11:16:29.790Z,44.10
2018-07-07T11:18:58.725Z,44.30
2018-07-07T11:21:27.621Z,43.80
2018-07-07T11:23:56.670Z,43.80
2018-07-07T11:26:25.664Z,43.70
2018-07-07T11:28:55.390Z,43.60
2018-07-07T11:31:24.420Z,43.40
2018-07-07T11:33:53.368Z,44.00
2018-07-07T11:36:22.298Z,43.30
2018-07-07T11:38:51.436Z,43.10
2018-07-07T11:41:22.378Z,43.00
2018-07-07T11:43:52.925Z,43.00
2018-07-07T11:46:22.113Z,43.00
2018-07-07T11:48:51.070Z,43.70
2018-07-07T11:51:20.168Z,43.00
2018-07-07T11:53:49.516Z,42.80
2018-07-07T11:56:18.442Z,41.40
2018-07-07T11:58:47.363Z,40.60
2018-07-07T12:01:16.285Z,41.00
2018-07-07T12:03:45.254Z,40.40
2018-07-07T12:06:14.167Z,40.10
2018-07-07T12:08:43.550Z,40.00
2018-07-07T12:11:12.471Z,40.50
2018-07-07T12:13:41.609Z,40.10
2018-07-07T12:16:10.561Z,39.80
2018-07-07T12:18:39.539Z,40.30
2018-07-07T12:21:08.565Z,39.80
2018-07-07T12:23:37.961Z,39.90
2018-07-07T12:26:07.058Z,39.90
2018-07-07T12:28:36.229Z,39.70
2018-07-07T12:31:05.615Z,39.50
2018-07-07T12:33:34.554Z,39.30
2018-07-07T12:36:03.572Z,38.90
2018-07-07T12:38:32.942Z,38.40
2018-07-07T12:41:01.866Z,38.40
2018-07-07T12:43:31.554Z,38.50
2018-07-07T12:46:00.779Z,38.50
2018-07-07T12:48:29.842Z,38.50
2018-07-07T12:50:58.582Z,38.40
2018-07-07T12:53:27.865Z,38.30
2018-07-07T12:55:56.786Z,38.30
2018-07-07T12:58:26.060Z,38.00
2018-07-07T13:00:54.799Z,37.50
2018-07-07T13:03:23.863Z,37.40
2018-07-07T13:05:52.808Z,37.30
2018-07-07T13:08:21.747Z,37.10
2018-07-07T13:10:50.763Z,36.90
2018-07-07T13:13:20.072Z,36.60
2018-07-07T13:15:49.010Z,35.80
2018-07-07T13:18:17.960Z,35.20
2018-07-07T13:20:46.612Z,35.30
2018-07-07T13:23:15.429Z,35.00
2018-07-07T13:25:44.354Z,34.90
2018-07-07T13:28:13.034Z,34.40
2018-07-07T13:30:41.802Z,34.30
2018-07-07T13:33:10.508Z,34.30
2018-07-07T13:35:39.655Z,34.00
2018-07-07T13:38:08.422Z,33.40
2018-07-07T13:40:37.528Z,33.40
2018-07-07T13:43:06.259Z,32.70
2018-07-07T13:45:34.890Z,33.10
2018-07-07T13:48:04.267Z,32.60
2018-07-07T13:50:32.905Z,32.30
2018-07-07T13:53:01.879Z,32.30
2018-07-07T13:55:30.542Z,32.30
2018-07-07T13:57:59.752Z,32.50
2018-07-07T14:00:28.590Z,32.20
2018-07-07T14:02:57.240Z,32.10
2018-07-07T14:05:26.238Z,31.50
2018-07-07T14:07:54.929Z,31.50
2018-07-07T14:10:23.589Z,31.50
2018-07-07T14:12:52.380Z,31.40
2018-07-07T14:15:21.084Z,31.70
2018-07-07T14:17:49.753Z,31.60
2018-07-07T14:20:18.409Z,31.70
2018-07-07T14:22:47.038Z,32.30
2018-07-07T14:25:15.667Z,32.60
2018-07-07T14:27:44.461Z,32.20
2018-07-07T14:30:13.102Z,32.20
2018-07-07T14:32:41.756Z,32.10
2018-07-07T14:35:10.674Z,32.30
2018-07-07T14:37:39.371Z,32.30
2018-07-07T14:40:08.065Z,31.70
2018-07-07T14:42:51.993Z,31.20
2018-07-07T14:45:24.612Z,31.40
2018-07-07T14:47:54.575Z,31.70
2018-07-07T14:50:24.205Z,31.00
2018-07-07T14:52:53.527Z,31.00
2018-07-07T14:55:23.543Z,30.30
2018-07-07T14:57:52.653Z,30.40
2018-07-07T15:00:24.803Z,30.00
2018-07-07T15:02:54.731Z,30.10
2018-07-07T15:05:23.441Z,30.30
2018-07-07T15:07:52.381Z,30.10
2018-07-07T15:10:20.999Z,30.00
2018-07-07T15:12:49.751Z,30.10
2018-07-07T15:15:18.383Z,30.10
2018-07-07T15:17:47.629Z,30.10
2018-07-07T15:20:16.440Z,30.10
2018-07-07T15:22:45.199Z,30.20
2018-07-07T15:25:13.928Z,30.30
2018-07-07T15:27:43.028Z,30.00
2018-07-07T15:30:11.704Z,30.00
2018-07-07T15:32:40.374Z,30.00
2018-07-07T15:35:09.113Z,30.20
2018-07-07T15:37:38.104Z,30.00
2018-07-07T15:40:07.276Z,30.30
2018-07-07T15:42:36.504Z,30.10
2018-07-07T15:45:05.283Z,30.00
2018-07-07T15:47:34.018Z,29.90
2018-07-07T15:50:03.260Z,29.60
2018-07-07T15:52:31.906Z,29.70
2018-07-07T15:55:00.532Z,29.60
2018-07-07T15:57:29.316Z,29.80
2018-07-07T15:59:57.938Z,30.00
2018-07-07T16:02:26.564Z,30.00
2018-07-07T16:04:55.177Z,30.00
2018-07-07T16:07:23.977Z,29.80
2018-07-07T16:09:52.629Z,29.90
2018-07-07T16:12:21.479Z,30.00
2018-07-07T16:14:50.162Z,29.80
2018-07-07T16:17:18.808Z,29.90
2018-07-07T16:19:47.457Z,29.90
2018-07-07T16:22:16.561Z,30.00
2018-07-07T16:24:45.184Z,30.00
2018-07-07T16:29:42.192Z,30.20
2018-07-07T16:32:10.801Z,30.10
2018-07-07T16:34:39.655Z,29.90
2018-07-07T16:37:10.403Z,29.90
2018-07-07T16:39:39.116Z,29.90
2018-07-07T16:42:07.930Z,29.90
2018-07-07T16:44:37.276Z,29.70
2018-07-07T16:47:06.023Z,29.70
2018-07-07T16:49:34.892Z,29.70
2018-07-07T16:52:03.835Z,29.80
2018-07-07T16:54:32.507Z,29.60
2018-07-07T16:57:01.176Z,29.80
2018-07-07T16:59:30.407Z,29.80
2018-07-07T17:01:59.149Z,29.90
2018-07-07T17:04:27.861Z,29.80
2018-07-07T17:06:56.793Z,29.60
2018-07-07T17:09:25.482Z,29.70
2018-07-07T17:11:54.372Z,29.70
2018-07-07T17:14:23.609Z,29.60
2018-07-07T17:16:52.794Z,29.60
2018-07-07T17:19:21.511Z,29.40
2018-07-07T17:21:50.190Z,29.20
2018-07-07T17:26:47.508Z,29.30
2018-07-07T17:29:16.250Z,29.30
2018-07-07T17:31:45.422Z,29.30
2018-07-07T17:34:14.314Z,29.60
2018-07-07T17:36:43.488Z,29.80
2018-07-07T17:39:12.450Z,30.10
2018-07-07T17:41:41.367Z,30.20
2018-07-07T17:44:10.132Z,30.60
2018-07-07T17:46:38.833Z,30.30
2018-07-07T17:49:07.492Z,30.10
2018-07-07T17:51:36.132Z,30.00
2018-07-07T17:54:04.852Z,29.90
2018-07-07T17:56:33.674Z,30.10
2018-07-07T17:59:02.940Z,31.10
2018-07-07T18:01:31.846Z,31.80
2018-07-07T18:04:00.635Z,32.50
2018-07-07T18:06:30.051Z,32.90
2018-07-07T18:08:58.719Z,33.20
2018-07-07T18:11:27.509Z,33.70
2018-07-07T18:16:25.605Z,34.40
2018-07-07T18:18:54.867Z,35.30
2018-07-07T18:21:23.893Z,35.30
2018-07-07T18:23:52.951Z,35.50
2018-07-07T18:26:21.879Z,35.80
2018-07-07T18:28:51.143Z,36.20
2018-07-07T18:31:20.423Z,36.50
2018-07-07T18:33:49.349Z,36.80
2018-07-07T18:36:18.651Z,37.00
2018-07-07T18:38:47.649Z,37.30
2018-07-07T18:41:16.742Z,37.40
2018-07-07T18:43:45.663Z,37.20
2018-07-07T18:46:14.594Z,37.60
2018-07-07T18:48:43.574Z,37.70
2018-07-07T18:51:12.719Z,37.90
2018-07-07T18:53:41.632Z,38.00
2018-07-07T18:56:10.679Z,38.20
2018-07-07T18:58:39.599Z,38.40
2018-07-07T19:01:09.030Z,38.60
2018-07-07T19:03:37.961Z,38.80
2018-07-07T19:06:06.949Z,38.90
2018-07-07T19:08:35.977Z,39.10
2018-07-07T19:13:33.557Z,39.40
2018-07-07T19:16:02.504Z,39.40
2018-07-07T19:18:31.411Z,39.50
2018-07-07T19:21:05.813Z,39.60
2018-07-07T19:23:40.414Z,39.70
2018-07-07T19:26:15.130Z,39.80
2018-07-07T19:28:44.262Z,39.90
2018-07-07T19:31:13.357Z,40.00
2018-07-07T19:33:47.538Z,40.20
2018-07-07T19:36:22.112Z,40.30
2018-07-07T19:38:51.185Z,40.40
2018-07-07T19:41:20.559Z,40.50
2018-07-07T19:43:49.736Z,40.60
2018-07-07T19:46:18.668Z,40.70
2018-07-07T19:48:47.779Z,40.90
2018-07-07T19:51:16.757Z,41.00
2018-07-07T19:53:45.801Z,41.10
2018-07-07T19:56:14.890Z,41.20
2018-07-07T19:58:43.815Z,41.30
2018-07-07T20:01:12.757Z,41.60
2018-07-07T20:03:41.709Z,41.60
2018-07-07T20:06:10.716Z,41.80
2018-07-07T20:08:39.623Z,42.00
2018-07-07T20:11:08.892Z,42.10
2018-07-07T20:13:37.927Z,42.20
2018-07-07T20:16:11.447Z,42.30
2018-07-07T20:19:22.566Z,42.30
2018-07-07T20:21:56.859Z,42.50
2018-07-07T20:24:31.435Z,42.70
2018-07-07T20:27:05.987Z,43.50
2018-07-07T20:29:34.909Z,43.70
2018-07-07T20:32:08.506Z,43.20
2018-07-07T20:34:37.414Z,43.30
2018-07-07T20:37:06.340Z,43.40
2018-07-07T20:39:35.436Z,43.70
2018-07-07T20:42:04.564Z,44.40
2018-07-07T20:44:33.940Z,43.80
2018-07-07T20:47:02.837Z,43.90
2018-07-07T20:49:31.964Z,44.00
2018-07-07T20:52:01.000Z,44.10
2018-07-07T20:54:29.950Z,44.20
2018-07-07T20:56:58.863Z,44.40
2018-07-07T20:59:27.795Z,44.50
2018-07-07T21:01:57.147Z,44.50
2018-07-07T21:04:26.392Z,44.60
2018-07-07T21:06:55.327Z,44.70
2018-07-07T21:09:24.237Z,44.90
2018-07-07T21:11:53.591Z,45.00
2018-07-07T21:14:23.029Z,45.20
2018-07-07T21:16:51.954Z,45.30
2018-07-07T21:19:20.886Z,45.30
2018-07-07T21:21:50.275Z,45.40
2018-07-07T21:24:19.324Z,45.60
2018-07-07T21:26:48.797Z,45.70
2018-07-07T21:29:17.781Z,45.90
2018-07-07T21:31:46.930Z,46.00
2018-07-07T21:34:15.983Z,46.10
2018-07-07T21:36:44.914Z,46.30
2018-07-07T21:39:13.950Z,46.50
2018-07-07T21:41:42.966Z,46.60
2018-07-07T21:44:12.432Z,46.80
2018-07-07T21:46:41.383Z,47.00
2018-07-07T21:49:10.754Z,47.10
2018-07-07T21:51:39.725Z,47.30
2018-07-07T21:54:08.695Z,47.40
2018-07-07T21:56:38.619Z,47.60
2018-07-07T21:59:12.873Z,47.70
2018-07-07T22:01:55.381Z,47.90
2018-07-07T22:07:04.574Z,48.00
2018-07-07T22:09:34.672Z,48.10
2018-07-07T22:12:03.714Z,48.20
2018-07-07T22:14:32.938Z,48.50
2018-07-07T22:17:02.570Z,48.60
2018-07-07T22:19:31.500Z,48.60
2018-07-07T22:22:05.936Z,48.70
2018-07-07T22:24:35.044Z,48.80
2018-07-07T22:27:05.802Z,48.90
2018-07-07T22:29:34.756Z,49.10
2018-07-07T22:32:05.211Z,49.30
2018-07-07T22:34:35.731Z,49.40
2018-07-07T22:37:05.404Z,49.60
2018-07-07T22:39:36.392Z,49.80
2018-07-07T22:42:08.029Z,50.00
2018-07-07T22:44:38.050Z,50.00
2018-07-07T22:47:07.173Z,50.10
2018-07-07T22:49:36.480Z,50.90
2018-07-07T22:52:07.736Z,50.40
2018-07-07T22:54:37.062Z,50.60
2018-07-07T22:57:06.252Z,50.90
2018-07-07T22:59:35.193Z,51.00
2018-07-07T23:02:04.173Z,51.20
2018-07-07T23:04:33.082Z,51.20
2018-07-07T23:07:02.327Z,51.40
2018-07-07T23:09:31.622Z,51.60
2018-07-07T23:12:00.527Z,51.70
2018-07-07T23:14:29.563Z,51.80
2018-07-07T23:16:59.875Z,51.90
2018-07-07T23:21:58.271Z,52.40
2018-07-07T23:24:27.351Z,52.20
2018-07-07T23:26:56.665Z,52.20
2018-07-07T23:29:25.567Z,52.30
2018-07-07T23:34:23.513Z,52.30
2018-07-07T23:36:53.069Z,52.40
2018-07-07T23:39:22.005Z,52.50
2018-07-07T23:41:51.093Z,52.50
2018-07-07T23:44:20.515Z,52.40
2018-07-07T23:46:49.757Z,52.40
2018-07-07T23:49:18.730Z,52.40
2018-07-07T23:51:47.651Z,52.50
2018-07-07T23:54:17.004Z,52.50
2018-07-07T23:56:46.017Z,52.60
2018-07-07T23:59:14.965Z,53.30
